sensor_id;sensor_type;location;lat;lon;timestamp;P1;durP1;ratioP1;P2;durP2;ratioP2
29938;SDS011;16799;50.844;5.304;2023-09-19T00:00:43;10.37;;;2.97;;
29938;SDS011;16799;50.844;5.304;2023-09-19T00:03:09;7.80;;;2.20;;
29938;SDS011;16799;50.844;5.304;2023-09-19T00:05:37;17.73;;;3.17;;
29938;SDS011;16799;50.844;5.304;2023-09-19T00:08:03;10.03;;;2.90;;
29938;SDS011;16799;50.844;5.304;2023-09-19T00:10:30;15.17;;;3.20;;
29938;SDS011;16799;50.844;5.304;2023-09-19T00:12:59;12.00;;;3.83;;
29938;SDS011;16799;50.844;5.304;2023-09-19T00:15:26;10.53;;;2.90;;
29938;SDS011;16799;50.844;5.304;2023-09-19T00:17:55;10.97;;;3.10;;
29938;SDS011;16799;50.844;5.304;2023-09-19T00:20:21;15.03;;;2.60;;
29938;SDS011;16799;50.844;5.304;2023-09-19T00:22:51;10.83;;;2.40;;
29938;SDS011;16799;50.844;5.304;2023-09-19T00:25:17;7.53;;;3.20;;
29938;SDS011;16799;50.844;5.304;2023-09-19T00:27:43;7.53;;;2.40;;
29938;SDS011;16799;50.844;5.304;2023-09-19T00:30:10;17.47;;;3.03;;
29938;SDS011;16799;50.844;5.304;2023-09-19T00:32:41;20.73;;;3.20;;
29938;SDS011;16799;50.844;5.304;2023-09-19T00:35:08;7.00;;;2.70;;
29938;SDS011;16799;50.844;5.304;2023-09-19T00:37:37;4.83;;;2.90;;
29938;SDS011;16799;50.844;5.304;2023-09-19T00:40:05;4.23;;;2.67;;
29938;SDS011;16799;50.844;5.304;2023-09-19T00:42:33;10.03;;;2.70;;
29938;SDS011;16799;50.844;5.304;2023-09-19T00:45:00;14.73;;;3.40;;
29938;SDS011;16799;50.844;5.304;2023-09-19T00:47:28;9.97;;;3.17;;
29938;SDS011;16799;50.844;5.304;2023-09-19T00:49:54;12.43;;;3.03;;
29938;SDS011;16799;50.844;5.304;2023-09-19T00:52:21;6.97;;;2.37;;
29938;SDS011;16799;50.844;5.304;2023-09-19T00:54:48;18.17;;;3.00;;
29938;SDS011;16799;50.844;5.304;2023-09-19T00:57:15;11.13;;;2.57;;
29938;SDS011;16799;50.844;5.304;2023-09-19T00:59:44;15.50;;;2.70;;
29938;SDS011;16799;50.844;5.304;2023-09-19T01:02:10;7.93;;;2.20;;
29938;SDS011;16799;50.844;5.304;2023-09-19T01:04:39;13.70;;;3.47;;
29938;SDS011;16799;50.844;5.304;2023-09-19T01:07:05;9.93;;;3.30;;
29938;SDS011;16799;50.844;5.304;2023-09-19T01:09:33;13.10;;;3.60;;
29938;SDS011;16799;50.844;5.304;2023-09-19T01:12:01;12.10;;;2.90;;
29938;SDS011;16799;50.844;5.304;2023-09-19T01:20:02;13.97;;;4.37;;
29938;SDS011;16799;50.844;5.304;2023-09-19T01:30:47;8.00;;;3.93;;
29938;SDS011;16799;50.844;5.304;2023-09-19T01:33:19;9.67;;;3.57;;
29938;SDS011;16799;50.844;5.304;2023-09-19T01:35:45;9.50;;;4.10;;
29938;SDS011;16799;50.844;5.304;2023-09-19T01:38:10;13.17;;;3.00;;
29938;SDS011;16799;50.844;5.304;2023-09-19T01:40:43;14.67;;;3.60;;
29938;SDS011;16799;50.844;5.304;2023-09-19T01:43:17;7.20;;;2.40;;
29938;SDS011;16799;50.844;5.304;2023-09-19T01:46:08;10.10;;;2.50;;
29938;SDS011;16799;50.844;5.304;2023-09-19T01:49:03;13.67;;;3.40;;
29938;SDS011;16799;50.844;5.304;2023-09-19T01:54:11;6.77;;;3.50;;
29938;SDS011;16799;50.844;5.304;2023-09-19T01:56:52;10.17;;;3.43;;
29938;SDS011;16799;50.844;5.304;2023-09-19T01:59:40;18.97;;;3.50;;
29938;SDS011;16799;50.844;5.304;2023-09-19T02:02:10;9.63;;;2.80;;
29938;SDS011;16799;50.844;5.304;2023-09-19T02:04:36;10.50;;;2.70;;
29938;SDS011;16799;50.844;5.304;2023-09-19T02:07:02;13.60;;;3.63;;
29938;SDS011;16799;50.844;5.304;2023-09-19T02:09:30;18.03;;;3.20;;
29938;SDS011;16799;50.844;5.304;2023-09-19T02:11:56;8.93;;;3.50;;
29938;SDS011;16799;50.844;5.304;2023-09-19T02:14:22;18.83;;;3.80;;
29938;SDS011;16799;50.844;5.304;2023-09-19T02:16:47;23.00;;;5.00;;
29938;SDS011;16799;50.844;5.304;2023-09-19T02:19:14;11.57;;;4.27;;
29938;SDS011;16799;50.844;5.304;2023-09-19T02:21:40;9.53;;;3.40;;
29938;SDS011;16799;50.844;5.304;2023-09-19T02:24:06;13.30;;;3.10;;
29938;SDS011;16799;50.844;5.304;2023-09-19T02:26:33;13.80;;;3.73;;
29938;SDS011;16799;50.844;5.304;2023-09-19T02:29:01;17.00;;;3.90;;
29938;SDS011;16799;50.844;5.304;2023-09-19T02:31:29;11.60;;;3.50;;
29938;SDS011;16799;50.844;5.304;2023-09-19T02:33:55;8.33;;;2.73;;
29938;SDS011;16799;50.844;5.304;2023-09-19T02:36:21;6.43;;;2.57;;
29938;SDS011;16799;50.844;5.304;2023-09-19T02:38:48;12.40;;;3.10;;
29938;SDS011;16799;50.844;5.304;2023-09-19T02:41:14;9.17;;;3.37;;
29938;SDS011;16799;50.844;5.304;2023-09-19T02:43:40;14.33;;;3.17;;
29938;SDS011;16799;50.844;5.304;2023-09-19T02:46:08;6.97;;;3.10;;
29938;SDS011;16799;50.844;5.304;2023-09-19T02:48:34;13.97;;;3.40;;
29938;SDS011;16799;50.844;5.304;2023-09-19T02:51:01;27.07;;;4.67;;
29938;SDS011;16799;50.844;5.304;2023-09-19T02:53:28;9.10;;;2.57;;
29938;SDS011;16799;50.844;5.304;2023-09-19T02:55:55;15.77;;;3.33;;
29938;SDS011;16799;50.844;5.304;2023-09-19T02:58:21;16.77;;;3.27;;
29938;SDS011;16799;50.844;5.304;2023-09-19T03:00:48;12.43;;;3.30;;
29938;SDS011;16799;50.844;5.304;2023-09-19T03:03:14;6.60;;;3.27;;
29938;SDS011;16799;50.844;5.304;2023-09-19T03:05:41;9.87;;;3.03;;
29938;SDS011;16799;50.844;5.304;2023-09-19T03:08:12;15.87;;;3.60;;
29938;SDS011;16799;50.844;5.304;2023-09-19T03:10:39;23.70;;;4.33;;
29938;SDS011;16799;50.844;5.304;2023-09-19T03:13:05;9.70;;;4.87;;
29938;SDS011;16799;50.844;5.304;2023-09-19T03:15:34;8.53;;;3.20;;
29938;SDS011;16799;50.844;5.304;2023-09-19T03:18:03;6.37;;;3.33;;
29938;SDS011;16799;50.844;5.304;2023-09-19T03:20:29;30.27;;;4.73;;
29938;SDS011;16799;50.844;5.304;2023-09-19T03:22:55;7.77;;;3.87;;
29938;SDS011;16799;50.844;5.304;2023-09-19T03:25:22;10.50;;;2.33;;
29938;SDS011;16799;50.844;5.304;2023-09-19T03:27:48;13.83;;;4.37;;
29938;SDS011;16799;50.844;5.304;2023-09-19T03:30:14;12.50;;;3.40;;
29938;SDS011;16799;50.844;5.304;2023-09-19T03:32:46;18.20;;;4.33;;
29938;SDS011;16799;50.844;5.304;2023-09-19T03:35:14;13.53;;;4.03;;
29938;SDS011;16799;50.844;5.304;2023-09-19T03:37:41;11.83;;;2.40;;
29938;SDS011;16799;50.844;5.304;2023-09-19T03:40:07;17.83;;;3.70;;
29938;SDS011;16799;50.844;5.304;2023-09-19T03:42:37;18.03;;;3.43;;
29938;SDS011;16799;50.844;5.304;2023-09-19T03:45:09;18.03;;;4.27;;
29938;SDS011;16799;50.844;5.304;2023-09-19T03:47:37;13.83;;;3.77;;
29938;SDS011;16799;50.844;5.304;2023-09-19T03:50:04;19.63;;;4.30;;
29938;SDS011;16799;50.844;5.304;2023-09-19T03:52:30;16.77;;;3.83;;
29938;SDS011;16799;50.844;5.304;2023-09-19T03:54:56;16.10;;;3.57;;
29938;SDS011;16799;50.844;5.304;2023-09-19T03:57:22;15.33;;;2.70;;
29938;SDS011;16799;50.844;5.304;2023-09-19T03:59:47;8.03;;;3.53;;
29938;SDS011;16799;50.844;5.304;2023-09-19T04:02:13;7.47;;;2.47;;
29938;SDS011;16799;50.844;5.304;2023-09-19T04:04:47;14.80;;;2.60;;
29938;SDS011;16799;50.844;5.304;2023-09-19T04:07:13;13.00;;;2.53;;
29938;SDS011;16799;50.844;5.304;2023-09-19T04:09:39;17.53;;;4.27;;
29938;SDS011;16799;50.844;5.304;2023-09-19T04:12:05;18.93;;;3.23;;
29938;SDS011;16799;50.844;5.304;2023-09-19T04:14:30;11.20;;;2.73;;
29938;SDS011;16799;50.844;5.304;2023-09-19T04:16:56;12.73;;;2.53;;
29938;SDS011;16799;50.844;5.304;2023-09-19T04:19:22;17.13;;;3.50;;
29938;SDS011;16799;50.844;5.304;2023-09-19T04:21:47;5.90;;;3.30;;
29938;SDS011;16799;50.844;5.304;2023-09-19T04:24:13;19.60;;;6.17;;
29938;SDS011;16799;50.844;5.304;2023-09-19T04:26:39;15.00;;;3.03;;
29938;SDS011;16799;50.844;5.304;2023-09-19T04:29:04;9.53;;;3.80;;
29938;SDS011;16799;50.844;5.304;2023-09-19T04:31:31;14.40;;;2.83;;
29938;SDS011;16799;50.844;5.304;2023-09-19T04:33:57;19.17;;;3.87;;
29938;SDS011;16799;50.844;5.304;2023-09-19T04:36:24;12.70;;;2.23;;
29938;SDS011;16799;50.844;5.304;2023-09-19T04:38:50;11.50;;;3.87;;
29938;SDS011;16799;50.844;5.304;2023-09-19T04:41:15;7.73;;;3.80;;
29938;SDS011;16799;50.844;5.304;2023-09-19T04:43:41;12.87;;;2.80;;
29938;SDS011;16799;50.844;5.304;2023-09-19T04:46:07;11.60;;;3.60;;
29938;SDS011;16799;50.844;5.304;2023-09-19T04:48:32;15.90;;;4.20;;
29938;SDS011;16799;50.844;5.304;2023-09-19T04:50:59;11.97;;;3.00;;
29938;SDS011;16799;50.844;5.304;2023-09-19T04:53:25;13.77;;;2.50;;
29938;SDS011;16799;50.844;5.304;2023-09-19T04:55:53;22.63;;;3.93;;
29938;SDS011;16799;50.844;5.304;2023-09-19T04:58:20;7.33;;;4.37;;
29938;SDS011;16799;50.844;5.304;2023-09-19T05:00:46;8.70;;;2.93;;
29938;SDS011;16799;50.844;5.304;2023-09-19T05:03:13;11.63;;;3.00;;
29938;SDS011;16799;50.844;5.304;2023-09-19T05:05:39;13.63;;;3.97;;
29938;SDS011;16799;50.844;5.304;2023-09-19T05:08:06;12.90;;;3.00;;
29938;SDS011;16799;50.844;5.304;2023-09-19T05:10:34;10.27;;;2.50;;
29938;SDS011;16799;50.844;5.304;2023-09-19T05:13:03;16.07;;;3.40;;
29938;SDS011;16799;50.844;5.304;2023-09-19T05:15:29;15.43;;;3.27;;
29938;SDS011;16799;50.844;5.304;2023-09-19T05:17:56;16.27;;;3.20;;
29938;SDS011;16799;50.844;5.304;2023-09-19T05:20:21;14.23;;;3.27;;
29938;SDS011;16799;50.844;5.304;2023-09-19T05:22:57;10.57;;;3.23;;
29938;SDS011;16799;50.844;5.304;2023-09-19T05:25:23;21.30;;;3.07;;
29938;SDS011;16799;50.844;5.304;2023-09-19T05:27:49;14.00;;;4.57;;
29938;SDS011;16799;50.844;5.304;2023-09-19T05:30:18;14.37;;;4.40;;
29938;SDS011;16799;50.844;5.304;2023-09-19T05:32:45;12.80;;;2.97;;
29938;SDS011;16799;50.844;5.304;2023-09-19T05:35:10;10.63;;;3.97;;
29938;SDS011;16799;50.844;5.304;2023-09-19T05:37:38;8.17;;;3.20;;
29938;SDS011;16799;50.844;5.304;2023-09-19T05:40:04;11.90;;;3.03;;
29938;SDS011;16799;50.844;5.304;2023-09-19T05:42:37;14.73;;;3.20;;
29938;SDS011;16799;50.844;5.304;2023-09-19T05:45:04;10.20;;;2.50;;
29938;SDS011;16799;50.844;5.304;2023-09-19T05:47:31;17.80;;;3.30;;
29938;SDS011;16799;50.844;5.304;2023-09-19T05:49:57;7.60;;;2.63;;
29938;SDS011;16799;50.844;5.304;2023-09-19T05:52:24;10.70;;;3.33;;
29938;SDS011;16799;50.844;5.304;2023-09-19T05:54:50;12.07;;;3.83;;
29938;SDS011;16799;50.844;5.304;2023-09-19T05:57:16;9.50;;;2.87;;
29938;SDS011;16799;50.844;5.304;2023-09-19T05:59:41;25.73;;;4.67;;
29938;SDS011;16799;50.844;5.304;2023-09-19T06:02:08;11.73;;;2.93;;
29938;SDS011;16799;50.844;5.304;2023-09-19T06:04:34;23.13;;;3.50;;
29938;SDS011;16799;50.844;5.304;2023-09-19T06:07:00;17.27;;;3.70;;
29938;SDS011;16799;50.844;5.304;2023-09-19T06:09:26;19.77;;;3.33;;
29938;SDS011;16799;50.844;5.304;2023-09-19T06:11:53;17.33;;;4.50;;
29938;SDS011;16799;50.844;5.304;2023-09-19T06:14:22;20.97;;;3.80;;
29938;SDS011;16799;50.844;5.304;2023-09-19T06:16:49;19.27;;;3.60;;
29938;SDS011;16799;50.844;5.304;2023-09-19T06:19:15;9.03;;;3.47;;
29938;SDS011;16799;50.844;5.304;2023-09-19T06:21:41;15.70;;;3.83;;
29938;SDS011;16799;50.844;5.304;2023-09-19T06:24:07;14.10;;;2.83;;
29938;SDS011;16799;50.844;5.304;2023-09-19T06:26:33;8.13;;;3.23;;
29938;SDS011;16799;50.844;5.304;2023-09-19T06:28:58;16.73;;;5.00;;
29938;SDS011;16799;50.844;5.304;2023-09-19T06:31:25;19.87;;;4.73;;
29938;SDS011;16799;50.844;5.304;2023-09-19T06:33:51;11.30;;;4.17;;
29938;SDS011;16799;50.844;5.304;2023-09-19T06:36:17;9.53;;;2.53;;
29938;SDS011;16799;50.844;5.304;2023-09-19T06:38:44;11.93;;;2.70;;
29938;SDS011;16799;50.844;5.304;2023-09-19T06:41:10;10.73;;;3.70;;
29938;SDS011;16799;50.844;5.304;2023-09-19T06:43:37;22.33;;;3.57;;
29938;SDS011;16799;50.844;5.304;2023-09-19T06:46:04;9.10;;;2.60;;
29938;SDS011;16799;50.844;5.304;2023-09-19T06:48:32;18.97;;;3.13;;
29938;SDS011;16799;50.844;5.304;2023-09-19T06:50:58;10.43;;;3.30;;
29938;SDS011;16799;50.844;5.304;2023-09-19T06:53:29;10.67;;;2.93;;
29938;SDS011;16799;50.844;5.304;2023-09-19T06:55:57;12.97;;;3.07;;
29938;SDS011;16799;50.844;5.304;2023-09-19T06:58:23;8.70;;;2.73;;
29938;SDS011;16799;50.844;5.304;2023-09-19T07:00:48;24.23;;;4.60;;
29938;SDS011;16799;50.844;5.304;2023-09-19T07:03:15;16.47;;;4.30;;
29938;SDS011;16799;50.844;5.304;2023-09-19T07:05:43;11.30;;;2.90;;
29938;SDS011;16799;50.844;5.304;2023-09-19T07:08:09;12.50;;;2.60;;
29938;SDS011;16799;50.844;5.304;2023-09-19T07:10:37;12.60;;;3.43;;
29938;SDS011;16799;50.844;5.304;2023-09-19T07:13:06;11.67;;;4.13;;
29938;SDS011;16799;50.844;5.304;2023-09-19T07:15:36;7.33;;;3.17;;
29938;SDS011;16799;50.844;5.304;2023-09-19T07:18:11;9.40;;;3.20;;
29938;SDS011;16799;50.844;5.304;2023-09-19T07:20:39;14.60;;;5.13;;
29938;SDS011;16799;50.844;5.304;2023-09-19T07:23:05;14.03;;;3.73;;
29938;SDS011;16799;50.844;5.304;2023-09-19T07:25:31;8.67;;;2.87;;
29938;SDS011;16799;50.844;5.304;2023-09-19T07:27:57;12.43;;;2.93;;
29938;SDS011;16799;50.844;5.304;2023-09-19T07:30:25;8.10;;;3.00;;
29938;SDS011;16799;50.844;5.304;2023-09-19T07:32:51;11.60;;;3.03;;
29938;SDS011;16799;50.844;5.304;2023-09-19T07:35:17;2.87;;;2.60;;
29938;SDS011;16799;50.844;5.304;2023-09-19T07:37:46;14.77;;;3.50;;
29938;SDS011;16799;50.844;5.304;2023-09-19T07:40:16;7.33;;;2.50;;
29938;SDS011;16799;50.844;5.304;2023-09-19T07:42:42;5.63;;;2.13;;
29938;SDS011;16799;50.844;5.304;2023-09-19T07:45:09;6.33;;;2.80;;
29938;SDS011;16799;50.844;5.304;2023-09-19T07:47:39;11.90;;;2.73;;
29938;SDS011;16799;50.844;5.304;2023-09-19T07:50:08;8.23;;;3.63;;
29938;SDS011;16799;50.844;5.304;2023-09-19T07:52:34;17.27;;;2.77;;
29938;SDS011;16799;50.844;5.304;2023-09-19T07:55:00;8.60;;;3.30;;
29938;SDS011;16799;50.844;5.304;2023-09-19T07:57:31;14.17;;;3.27;;
29938;SDS011;16799;50.844;5.304;2023-09-19T07:59:59;10.27;;;2.50;;
29938;SDS011;16799;50.844;5.304;2023-09-19T08:02:25;18.13;;;3.97;;
29938;SDS011;16799;50.844;5.304;2023-09-19T08:04:51;12.30;;;3.33;;
29938;SDS011;16799;50.844;5.304;2023-09-19T08:07:17;11.10;;;2.80;;
29938;SDS011;16799;50.844;5.304;2023-09-19T08:09:43;7.53;;;2.37;;
29938;SDS011;16799;50.844;5.304;2023-09-19T08:12:13;13.20;;;3.27;;
29938;SDS011;16799;50.844;5.304;2023-09-19T08:14:40;7.80;;;2.70;;
29938;SDS011;16799;50.844;5.304;2023-09-19T08:17:08;10.43;;;3.10;;
29938;SDS011;16799;50.844;5.304;2023-09-19T08:19:34;22.27;;;3.13;;
29938;SDS011;16799;50.844;5.304;2023-09-19T08:22:01;18.03;;;3.17;;
29938;SDS011;16799;50.844;5.304;2023-09-19T08:24:28;13.73;;;3.03;;
29938;SDS011;16799;50.844;5.304;2023-09-19T08:26:55;12.50;;;3.10;;
29938;SDS011;16799;50.844;5.304;2023-09-19T08:29:21;6.57;;;3.50;;
29938;SDS011;16799;50.844;5.304;2023-09-19T08:31:52;11.40;;;2.47;;
29938;SDS011;16799;50.844;5.304;2023-09-19T08:34:24;8.57;;;3.53;;
29938;SDS011;16799;50.844;5.304;2023-09-19T08:36:53;8.53;;;2.87;;
29938;SDS011;16799;50.844;5.304;2023-09-19T08:39:23;10.03;;;2.70;;
29938;SDS011;16799;50.844;5.304;2023-09-19T08:41:49;24.47;;;3.77;;
29938;SDS011;16799;50.844;5.304;2023-09-19T08:44:15;10.23;;;2.37;;
29938;SDS011;16799;50.844;5.304;2023-09-19T08:46:41;12.07;;;3.20;;
29938;SDS011;16799;50.844;5.304;2023-09-19T08:54:51;9.70;;;3.03;;
29938;SDS011;16799;50.844;5.304;2023-09-19T08:57:18;6.50;;;2.53;;
29938;SDS011;16799;50.844;5.304;2023-09-19T08:59:47;9.20;;;2.70;;
29938;SDS011;16799;50.844;5.304;2023-09-19T09:02:16;6.17;;;2.60;;
29938;SDS011;16799;50.844;5.304;2023-09-19T09:04:44;6.20;;;2.07;;
29938;SDS011;16799;50.844;5.304;2023-09-19T09:07:11;11.80;;;4.13;;
29938;SDS011;16799;50.844;5.304;2023-09-19T09:09:42;12.23;;;2.77;;
29938;SDS011;16799;50.844;5.304;2023-09-19T09:12:12;13.17;;;3.47;;
29938;SDS011;16799;50.844;5.304;2023-09-19T09:14:39;6.93;;;2.93;;
29938;SDS011;16799;50.844;5.304;2023-09-19T09:17:06;7.70;;;3.03;;
29938;SDS011;16799;50.844;5.304;2023-09-19T09:19:32;7.90;;;2.63;;
29938;SDS011;16799;50.844;5.304;2023-09-19T09:22:10;8.53;;;2.73;;
29938;SDS011;16799;50.844;5.304;2023-09-19T09:24:37;6.40;;;2.30;;
29938;SDS011;16799;50.844;5.304;2023-09-19T09:27:15;13.40;;;2.50;;
29938;SDS011;16799;50.844;5.304;2023-09-19T09:29:44;6.80;;;2.67;;
29938;SDS011;16799;50.844;5.304;2023-09-19T09:32:33;13.20;;;3.57;;
29938;SDS011;16799;50.844;5.304;2023-09-19T09:35:00;8.93;;;3.23;;
29938;SDS011;16799;50.844;5.304;2023-09-19T09:37:27;8.00;;;1.97;;
29938;SDS011;16799;50.844;5.304;2023-09-19T09:39:59;12.97;;;3.00;;
29938;SDS011;16799;50.844;5.304;2023-09-19T09:42:53;13.70;;;3.20;;
29938;SDS011;16799;50.844;5.304;2023-09-19T09:45:23;11.10;;;4.53;;
29938;SDS011;16799;50.844;5.304;2023-09-19T09:47:59;9.57;;;2.97;;
29938;SDS011;16799;50.844;5.304;2023-09-19T09:50:32;10.60;;;3.70;;
29938;SDS011;16799;50.844;5.304;2023-09-19T09:53:24;9.67;;;2.13;;
29938;SDS011;16799;50.844;5.304;2023-09-19T09:58:34;9.27;;;2.93;;
29938;SDS011;16799;50.844;5.304;2023-09-19T10:01:02;12.50;;;2.97;;
29938;SDS011;16799;50.844;5.304;2023-09-19T10:03:37;12.63;;;3.00;;
29938;SDS011;16799;50.844;5.304;2023-09-19T10:06:09;7.17;;;2.47;;
29938;SDS011;16799;50.844;5.304;2023-09-19T10:09:00;3.53;;;2.27;;
29938;SDS011;16799;50.844;5.304;2023-09-19T10:11:42;6.53;;;2.63;;
29938;SDS011;16799;50.844;5.304;2023-09-19T10:14:29;5.23;;;2.73;;
29938;SDS011;16799;50.844;5.304;2023-09-19T10:16:58;4.13;;;2.63;;
29938;SDS011;16799;50.844;5.304;2023-09-19T10:19:41;5.77;;;2.77;;
29938;SDS011;16799;50.844;5.304;2023-09-19T10:22:12;7.80;;;2.43;;
29938;SDS011;16799;50.844;5.304;2023-09-19T10:24:45;5.90;;;1.80;;
29938;SDS011;16799;50.844;5.304;2023-09-19T10:27:17;4.37;;;2.60;;
29938;SDS011;16799;50.844;5.304;2023-09-19T10:29:44;11.83;;;2.40;;
29938;SDS011;16799;50.844;5.304;2023-09-19T10:32:15;5.70;;;2.23;;
29938;SDS011;16799;50.844;5.304;2023-09-19T10:34:46;8.73;;;2.73;;
29938;SDS011;16799;50.844;5.304;2023-09-19T10:37:12;7.50;;;2.40;;
29938;SDS011;16799;50.844;5.304;2023-09-19T10:39:40;5.13;;;2.90;;
29938;SDS011;16799;50.844;5.304;2023-09-19T10:42:10;5.77;;;2.23;;
29938;SDS011;16799;50.844;5.304;2023-09-19T10:44:42;6.80;;;2.03;;
29938;SDS011;16799;50.844;5.304;2023-09-19T10:47:10;17.43;;;3.37;;
29938;SDS011;16799;50.844;5.304;2023-09-19T10:49:42;10.50;;;2.53;;
29938;SDS011;16799;50.844;5.304;2023-09-19T10:52:11;3.57;;;1.90;;
29938;SDS011;16799;50.844;5.304;2023-09-19T10:54:48;5.53;;;2.93;;
29938;SDS011;16799;50.844;5.304;2023-09-19T10:57:22;8.00;;;2.80;;
29938;SDS011;16799;50.844;5.304;2023-09-19T11:00:02;6.93;;;2.77;;
29938;SDS011;16799;50.844;5.304;2023-09-19T11:05:36;7.43;;;1.53;;
29938;SDS011;16799;50.844;5.304;2023-09-19T11:08:09;5.53;;;1.67;;
29938;SDS011;16799;50.844;5.304;2023-09-19T11:10:46;4.13;;;2.47;;
29938;SDS011;16799;50.844;5.304;2023-09-19T11:13:29;8.00;;;3.17;;
29938;SDS011;16799;50.844;5.304;2023-09-19T11:26:42;2.10;;;1.43;;
29938;SDS011;16799;50.844;5.304;2023-09-19T11:29:24;3.87;;;1.60;;
29938;SDS011;16799;50.844;5.304;2023-09-19T11:31:55;3.27;;;1.47;;
29938;SDS011;16799;50.844;5.304;2023-09-19T11:40:09;2.13;;;1.40;;
29938;SDS011;16799;50.844;5.304;2023-09-19T11:42:45;6.63;;;2.90;;
29938;SDS011;16799;50.844;5.304;2023-09-19T11:48:23;5.40;;;1.30;;
29938;SDS011;16799;50.844;5.304;2023-09-19T11:50:52;3.00;;;1.03;;
29938;SDS011;16799;50.844;5.304;2023-09-19T11:53:18;4.80;;;1.20;;
29938;SDS011;16799;50.844;5.304;2023-09-19T11:55:45;7.90;;;2.00;;
29938;SDS011;16799;50.844;5.304;2023-09-19T11:58:11;9.30;;;1.53;;
29938;SDS011;16799;50.844;5.304;2023-09-19T12:00:41;4.63;;;2.10;;
29938;SDS011;16799;50.844;5.304;2023-09-19T12:03:10;5.50;;;1.30;;
29938;SDS011;16799;50.844;5.304;2023-09-19T12:05:36;7.73;;;1.47;;
29938;SDS011;16799;50.844;5.304;2023-09-19T12:08:07;3.10;;;0.87;;
29938;SDS011;16799;50.844;5.304;2023-09-19T12:10:54;12.43;;;1.37;;
29938;SDS011;16799;50.844;5.304;2023-09-19T12:13:23;4.80;;;1.70;;
29938;SDS011;16799;50.844;5.304;2023-09-19T12:15:49;3.70;;;0.93;;
29938;SDS011;16799;50.844;5.304;2023-09-19T12:18:30;5.00;;;1.50;;
29938;SDS011;16799;50.844;5.304;2023-09-19T12:20:56;1.60;;;1.43;;
29938;SDS011;16799;50.844;5.304;2023-09-19T12:23:29;1.97;;;1.20;;
29938;SDS011;16799;50.844;5.304;2023-09-19T12:25:55;1.27;;;0.70;;
29938;SDS011;16799;50.844;5.304;2023-09-19T12:28:22;4.43;;;0.90;;
29938;SDS011;16799;50.844;5.304;2023-09-19T12:30:52;2.33;;;0.90;;
29938;SDS011;16799;50.844;5.304;2023-09-19T12:33:20;1.30;;;0.90;;
29938;SDS011;16799;50.844;5.304;2023-09-19T12:35:49;13.70;;;1.37;;
29938;SDS011;16799;50.844;5.304;2023-09-19T12:38:28;1.17;;;1.03;;
29938;SDS011;16799;50.844;5.304;2023-09-19T12:40:57;2.77;;;1.40;;
29938;SDS011;16799;50.844;5.304;2023-09-19T12:43:25;2.03;;;1.00;;
29938;SDS011;16799;50.844;5.304;2023-09-19T12:45:52;5.27;;;1.50;;
29938;SDS011;16799;50.844;5.304;2023-09-19T12:51:02;9.60;;;0.90;;
29938;SDS011;16799;50.844;5.304;2023-09-19T12:53:42;1.30;;;0.90;;
29938;SDS011;16799;50.844;5.304;2023-09-19T12:56:10;4.33;;;1.13;;
29938;SDS011;16799;50.844;5.304;2023-09-19T12:58:57;3.17;;;0.80;;
29938;SDS011;16799;50.844;5.304;2023-09-19T13:01:28;5.00;;;1.50;;
29938;SDS011;16799;50.844;5.304;2023-09-19T13:06:40;3.13;;;0.90;;
29938;SDS011;16799;50.844;5.304;2023-09-19T13:09:08;5.20;;;1.00;;
29938;SDS011;16799;50.844;5.304;2023-09-19T13:11:38;3.83;;;0.90;;
29938;SDS011;16799;50.844;5.304;2023-09-19T13:14:16;3.23;;;1.10;;
29938;SDS011;16799;50.844;5.304;2023-09-19T13:17:10;3.00;;;1.80;;
29938;SDS011;16799;50.844;5.304;2023-09-19T13:25:03;3.70;;;1.40;;
29938;SDS011;16799;50.844;5.304;2023-09-19T13:27:31;1.10;;;0.77;;
29938;SDS011;16799;50.844;5.304;2023-09-19T13:29:58;3.50;;;1.17;;
29938;SDS011;16799;50.844;5.304;2023-09-19T13:32:23;3.20;;;1.03;;
29938;SDS011;16799;50.844;5.304;2023-09-19T13:34:50;9.70;;;1.47;;
29938;SDS011;16799;50.844;5.304;2023-09-19T13:37:16;7.60;;;0.80;;
29938;SDS011;16799;50.844;5.304;2023-09-19T13:39:43;6.00;;;1.20;;
29938;SDS011;16799;50.844;5.304;2023-09-19T13:42:12;7.03;;;1.80;;
29938;SDS011;16799;50.844;5.304;2023-09-19T13:44:38;2.83;;;0.90;;
29938;SDS011;16799;50.844;5.304;2023-09-19T13:47:06;7.23;;;1.03;;
29938;SDS011;16799;50.844;5.304;2023-09-19T13:49:35;2.40;;;1.00;;
29938;SDS011;16799;50.844;5.304;2023-09-19T13:52:01;5.77;;;1.10;;
29938;SDS011;16799;50.844;5.304;2023-09-19T13:54:29;1.40;;;0.83;;
29938;SDS011;16799;50.844;5.304;2023-09-19T13:56:55;2.07;;;1.10;;
29938;SDS011;16799;50.844;5.304;2023-09-19T13:59:21;2.70;;;1.07;;
29938;SDS011;16799;50.844;5.304;2023-09-19T14:01:49;4.13;;;1.20;;
29938;SDS011;16799;50.844;5.304;2023-09-19T14:04:15;2.33;;;1.70;;
29938;SDS011;16799;50.844;5.304;2023-09-19T14:06:42;1.30;;;0.70;;
29938;SDS011;16799;50.844;5.304;2023-09-19T14:09:08;2.83;;;1.60;;
29938;SDS011;16799;50.844;5.304;2023-09-19T14:11:35;17.73;;;1.40;;
29938;SDS011;16799;50.844;5.304;2023-09-19T14:14:01;2.50;;;1.77;;
29938;SDS011;16799;50.844;5.304;2023-09-19T14:16:27;4.87;;;1.43;;
29938;SDS011;16799;50.844;5.304;2023-09-19T14:18:56;11.80;;;1.57;;
29938;SDS011;16799;50.844;5.304;2023-09-19T14:21:22;2.47;;;0.93;;
29938;SDS011;16799;50.844;5.304;2023-09-19T14:23:48;4.43;;;1.50;;
29938;SDS011;16799;50.844;5.304;2023-09-19T14:26:14;4.03;;;1.13;;
29938;SDS011;16799;50.844;5.304;2023-09-19T14:28:41;4.87;;;1.23;;
29938;SDS011;16799;50.844;5.304;2023-09-19T14:31:08;1.53;;;1.00;;
29938;SDS011;16799;50.844;5.304;2023-09-19T14:33:34;8.00;;;1.73;;
29938;SDS011;16799;50.844;5.304;2023-09-19T14:36:05;6.50;;;1.20;;
29938;SDS011;16799;50.844;5.304;2023-09-19T14:38:33;2.20;;;1.17;;
29938;SDS011;16799;50.844;5.304;2023-09-19T14:41:03;5.00;;;1.60;;
29938;SDS011;16799;50.844;5.304;2023-09-19T14:43:30;4.60;;;1.57;;
29938;SDS011;16799;50.844;5.304;2023-09-19T14:45:57;1.67;;;0.90;;
29938;SDS011;16799;50.844;5.304;2023-09-19T14:48:35;2.73;;;1.40;;
29938;SDS011;16799;50.844;5.304;2023-09-19T14:51:05;3.90;;;1.73;;
29938;SDS011;16799;50.844;5.304;2023-09-19T14:53:33;4.80;;;1.37;;
29938;SDS011;16799;50.844;5.304;2023-09-19T14:56:00;2.93;;;1.27;;
29938;SDS011;16799;50.844;5.304;2023-09-19T14:58:33;4.20;;;1.20;;
29938;SDS011;16799;50.844;5.304;2023-09-19T15:01:03;4.03;;;1.33;;
29938;SDS011;16799;50.844;5.304;2023-09-19T15:03:31;2.40;;;0.90;;
29938;SDS011;16799;50.844;5.304;2023-09-19T15:06:04;4.40;;;1.43;;
29938;SDS011;16799;50.844;5.304;2023-09-19T15:08:44;3.60;;;1.27;;
29938;SDS011;16799;50.844;5.304;2023-09-19T15:11:12;4.20;;;1.37;;
29938;SDS011;16799;50.844;5.304;2023-09-19T15:13:42;6.67;;;1.80;;
29938;SDS011;16799;50.844;5.304;2023-09-19T15:16:09;4.20;;;1.47;;
29938;SDS011;16799;50.844;5.304;2023-09-19T15:18:39;2.10;;;1.03;;
29938;SDS011;16799;50.844;5.304;2023-09-19T15:21:06;1.70;;;1.13;;
29938;SDS011;16799;50.844;5.304;2023-09-19T15:23:34;2.93;;;1.50;;
29938;SDS011;16799;50.844;5.304;2023-09-19T15:26:01;7.53;;;1.47;;
29938;SDS011;16799;50.844;5.304;2023-09-19T15:28:30;8.37;;;1.70;;
29938;SDS011;16799;50.844;5.304;2023-09-19T15:31:11;1.43;;;1.33;;
29938;SDS011;16799;50.844;5.304;2023-09-19T15:33:38;4.70;;;1.77;;
29938;SDS011;16799;50.844;5.304;2023-09-19T15:38:31;4.43;;;1.40;;
29938;SDS011;16799;50.844;5.304;2023-09-19T15:41:00;6.07;;;1.77;;
29938;SDS011;16799;50.844;5.304;2023-09-19T15:43:30;3.00;;;1.00;;
29938;SDS011;16799;50.844;5.304;2023-09-19T15:45:56;5.03;;;1.70;;
29938;SDS011;16799;50.844;5.304;2023-09-19T15:48:21;1.83;;;1.57;;
29938;SDS011;16799;50.844;5.304;2023-09-19T15:50:47;5.07;;;2.30;;